LEST Airport Information

Runway Information
Runway 17 Length 10499 ft width 148 ft
Elevation 1170 ft Threshold 394 ft Heading 166
Runway 35 Length 10499 ft Width 148 ft
Elevation 1196 ft Threshold 0 ft Heading 346
Airport Frequencies
Type APP Name APP Frequency 118.2 MHZ
Type GND Name GND Frequency 121.7 MHZ
Type TWR Name TWR Frequency 118.75 MHZ
Airport Navaids
Type NDB Name Santiago Frequency 417 KHZ
Type VOR-DME Name Santiago Frequency 116400 KHZ
Airport Weather Information & NOTAM
ADDS - METARS form results

(1514 UTC 19 May 2022)
Data provider http://aviationweather.gov/metar/data/
 
METAR text: LEST 191500Z VRB01KT 9999 FEW020 23/12 Q1018 NOSIG
Conditions at: LEST (SANTIAGO/LABACOL, ES) observed 1500 UTC 19 May 2022
Temperature: 23.0°C (73°F)
Dewpoint: 12.0°C (54°F) [RH = 50%]
Pressure (altimeter): 30.06 inches Hg (1018.0 mb)
Winds: variable direction winds at 1 MPH (1 knots; 0.5 m/s)
Visibility: 6 or more miles (10+ km)
Ceiling: at least 12,000 feet AGL
Clouds: few clouds at 2000 feet AGL
Weather: no significant weather observed at this time

METAR text: LEST 191430Z VRB05KT 9999 FEW020 21/11 Q1018 NOSIG
Conditions at: LEST (SANTIAGO/LABACOL, ES) observed 1430 UTC 19 May 2022
Temperature: 21.0°C (70°F)
Dewpoint: 11.0°C (52°F) [RH = 53%]
Pressure (altimeter): 30.06 inches Hg (1018.0 mb)
Winds: variable direction winds at 6 MPH (5 knots; 2.6 m/s)
Visibility: 6 or more miles (10+ km)
Ceiling: at least 12,000 feet AGL
Clouds: few clouds at 2000 feet AGL
Weather: no significant weather observed at this time

Forecast for: LEST (SANTIAGO/LABACOL, ES)
Text: TAF LEST 191100Z 1912/2012 VRB05KT 9999 FEW020 TX23/1915Z TN10/2006Z
Forecast period: 1200 UTC 19 May 2022 to 1200 UTC 20 May 2022
Forecast type: FROM: standard forecast or significant change
Winds: variable direction winds at 6 MPH (5 knots; 2.6 m/s)
Visibility: 6 or more miles (10+ km)
Ceiling: at least 12,000 feet AGL
Clouds: few clouds at 2000 feet AGL
Weather: no significant weather forecast for this period
Text: TEMPO 1912/1920 36010KT
Forecast period: 1200 to 2000 UTC 19 May 2022
Forecast type: TEMPORARY: The following changes expected for less than half the time period
Winds: from the N (360 degrees) at 12 MPH (10 knots; 5.1 m/s)
Visibility: missing
Ceiling: unknown
Clouds: missing
Weather: no significant weather forecast for this period
Text: TEMPO 2000/2009 3000 BR BCFG BKN005
Forecast period: 0000 to 0900 UTC 20 May 2022
Forecast type: TEMPORARY: The following changes expected for less than half the time period
Visibility: 1.86 miles (2.99 km)
Ceiling: 500 feet AGL
Clouds: broken clouds at 500 feet AGL
Weather: BR BCFG  (mist, patches of fog)
Text: PROB40
Forecast period: 0200 to 0800 UTC 20 May 2022
Forecast type: TEMPORARY: The following changes expected for less than half the time period
Visibility: 0.22 miles (0.35 km)
Ceiling: indefinite ceiling with vertical visibility of 100 feet AGL
Clouds: obscured sky
Weather: BCFG  (patches of fog)